International Virtual Aviation Organisation

Russian Federation and Kazakhstan MCD

 

Карточка аэропорта ULAA

Внимание!
Информация на этой странице в стадии наполнения.
Если вы не увидели какой-то информации, или заметили неточность - пожалуйста сообщите нам!
Спасибо!
Команда RU-STAFF
Название аэропортаТалаги
Название аэропорта (англ.)Talagi
Превышение62 ft. (18.9 m.)
Координаты64°36.018', 40°43.002'
Высота перехода800m
Эшелон переходаQFE>=760mm:FL040; QFE<760=>733:FL050; QFE<733:FL060
Коды ответчика3120-3127
Зона ОрВДАрхангельск РПИ (ULAA)
Данные METARULAA 241430Z 26004MPS 220V300 9999 OVC022 M00/M04 Q0981 R26/920555 NOSIG RMK QFE734/0979
Проноз погоды (TAF)ULAA 241400Z 2415/2515 22003MPS 6000 BKN015 TEMPO 2415/2417 26003G10MPS 3100 -SHSN BKN011CB TEMPO 2417/2424 26003G10MPS 1100 SHSN BR BKN005 BKN012CB TEMPO 2500/2506 18003MPS 4000 -SHSN BR FEW004 BKN011CB TEMPO 2509/2515 18003G08MPS 3100 -SHSN BR FEW003 BKN011CB
NOTAMshow/hide NOTAM
AWOS   TABLE

Информация о ВПП


Диспетчерские позиции

Позывной Наименование органа УВД Частота
ULAA_APPАрхангельск-Подход122.0
ULAA_TWRАрхангельск-Вышка121.8



Спутниковое изображение